createdAt,value
2022-09-14T00:01:26.242Z,147683.53
2022-09-14T00:04:00.222Z,147627.34
2022-09-14T00:06:29.013Z,147583.34
2022-09-14T00:08:58.090Z,147634.66
2022-09-14T00:11:27.197Z,147654.19
2022-09-14T00:13:55.978Z,147654.19
2022-09-14T00:16:27.139Z,147651.75
2022-09-14T00:18:56.637Z,147612.66
2022-09-14T00:21:24.613Z,147654.19
2022-09-14T00:23:51.738Z,147602.88
2022-09-14T00:26:21.548Z,147634.66
2022-09-14T00:28:51.900Z,147632.22
2022-09-14T00:31:20.358Z,147644.41
2022-09-14T00:33:49.510Z,147649.31
2022-09-14T00:36:20.058Z,147637.13
2022-09-14T00:38:48.642Z,147656.66
2022-09-14T00:41:19.859Z,147629.75
2022-09-14T00:44:06.059Z,147646.88
2022-09-14T00:46:44.729Z,147659.13
2022-09-14T00:49:24.389Z,147645.66
2022-09-14T00:52:03.774Z,147651.75
2022-09-14T00:54:31.667Z,147659.13
2022-09-14T00:57:02.329Z,147588.22
2022-09-14T00:59:32.887Z,147622.47
2022-09-14T01:02:00.223Z,147576.00
2022-09-14T01:04:27.319Z,147612.66
2022-09-14T01:06:54.238Z,147617.53
2022-09-14T01:09:50.126Z,147604.13
2022-09-14T01:12:39.293Z,147642.00
2022-09-14T01:15:20.315Z,147627.34
2022-09-14T01:18:09.161Z,147632.22
2022-09-14T01:20:56.323Z,147639.53
2022-09-14T01:23:45.148Z,147633.44
2022-09-14T01:26:39.969Z,147657.88
2022-09-14T01:29:17.030Z,147612.66
2022-09-14T01:32:05.826Z,147624.88
2022-09-14T01:34:43.641Z,147620.00
2022-09-14T01:37:15.533Z,147583.34
2022-09-14T01:39:47.135Z,147644.41
2022-09-14T01:42:14.904Z,147574.78
2022-09-14T01:44:47.830Z,147622.47
2022-09-14T01:47:26.257Z,147659.13
2022-09-14T01:50:00.058Z,147638.31
2022-09-14T01:52:33.813Z,147628.56
2022-09-14T01:55:11.249Z,147634.66
2022-09-14T01:57:43.945Z,147620.00
2022-09-14T02:00:16.340Z,147622.47
2022-09-14T02:02:49.736Z,147620.00
2022-09-14T02:05:24.129Z,147610.22
2022-09-14T02:07:51.247Z,147602.88
2022-09-14T02:10:18.417Z,147630.97
2022-09-14T02:12:46.020Z,147646.88
2022-09-14T02:15:14.979Z,147600.47
2022-09-14T02:17:42.492Z,147610.22
2022-09-14T02:20:21.815Z,147580.88
2022-09-14T02:22:50.927Z,147588.22
2022-09-14T02:25:19.742Z,147573.59
2022-09-14T02:27:48.096Z,147549.16
2022-09-14T02:30:17.015Z,147590.69
2022-09-14T02:32:56.230Z,147591.91
2022-09-14T02:35:32.382Z,147588.22
2022-09-14T02:38:13.237Z,147600.47
2022-09-14T02:41:02.888Z,147574.78
2022-09-14T02:44:14.730Z,147590.69
2022-09-14T02:47:16.102Z,147519.81
2022-09-14T02:49:55.773Z,147599.22
2022-09-14T02:52:31.712Z,147554.06
2022-09-14T02:55:06.330Z,147624.88
2022-09-14T02:57:33.307Z,147538.16
2022-09-14T03:00:00.309Z,147580.88
2022-09-14T03:02:27.349Z,147558.94
2022-09-14T03:04:55.152Z,147550.38
2022-09-14T03:07:22.113Z,147554.06
2022-09-14T03:09:49.175Z,147544.25
2022-09-14T03:12:16.374Z,147565.03
2022-09-14T03:14:43.345Z,147529.59
2022-09-14T03:17:10.320Z,147543.03
2022-09-14T03:19:37.349Z,147549.16
2022-09-14T03:22:04.361Z,147500.28
2022-09-14T03:24:32.389Z,147539.34
2022-09-14T03:26:59.449Z,147566.25
2022-09-14T03:29:26.476Z,147469.69
2022-09-14T03:31:53.474Z,147511.28
2022-09-14T03:34:21.048Z,147514.94
2022-09-14T03:36:48.018Z,147541.81
2022-09-14T03:39:15.020Z,147568.69
2022-09-14T03:41:41.995Z,147573.59
2022-09-14T03:44:10.082Z,147528.38
2022-09-14T03:46:37.164Z,147560.16
2022-09-14T03:49:04.247Z,147558.94
2022-09-14T03:51:31.343Z,147525.91
2022-09-14T03:53:58.335Z,147512.53
2022-09-14T03:56:25.377Z,147535.72
2022-09-14T03:58:52.401Z,147551.59
2022-09-14T04:01:21.612Z,147557.69
2022-09-14T04:03:49.606Z,147558.94
2022-09-14T04:06:18.211Z,147579.69
2022-09-14T04:08:46.867Z,147568.69
2022-09-14T04:11:19.924Z,147558.94
2022-09-14T04:13:47.974Z,147552.78
2022-09-14T04:16:16.705Z,147552.78
2022-09-14T04:18:44.721Z,147557.69
2022-09-14T04:21:19.351Z,147561.34
2022-09-14T04:24:10.576Z,147497.84
2022-09-14T04:26:34.436Z,147546.69
2022-09-14T04:29:01.660Z,147541.81
2022-09-14T04:31:28.938Z,147480.72
2022-09-14T04:33:56.901Z,147568.69
2022-09-14T04:36:28.507Z,147534.47
2022-09-14T04:38:58.036Z,147524.72
2022-09-14T04:41:26.577Z,147497.84
2022-09-14T04:43:54.829Z,147555.25
2022-09-14T04:46:24.298Z,147565.03
2022-09-14T04:48:51.724Z,147546.69
2022-09-14T04:51:23.783Z,147556.47
2022-09-14T04:53:53.202Z,147549.16
2022-09-14T04:56:24.318Z,147539.34
2022-09-14T04:58:55.082Z,147551.59
2022-09-14T05:01:24.815Z,147475.84
2022-09-14T05:03:52.975Z,147527.16
2022-09-14T05:06:29.141Z,147539.34
2022-09-14T05:08:57.273Z,147494.22
2022-09-14T05:11:26.559Z,147512.53
2022-09-14T05:13:56.008Z,147556.47
2022-09-14T05:16:28.537Z,147541.81
2022-09-14T05:18:58.095Z,147549.16
2022-09-14T05:21:25.343Z,147556.47
2022-09-14T05:23:57.366Z,147496.63
2022-09-14T05:26:26.606Z,147573.59
2022-09-14T05:28:55.736Z,147573.59
2022-09-14T05:31:24.337Z,147545.50
2022-09-14T05:33:52.054Z,147568.69
2022-09-14T05:36:19.425Z,147529.59
2022-09-14T05:38:46.426Z,147561.34
2022-09-14T05:41:15.169Z,147566.25
2022-09-14T05:43:43.317Z,147558.94
2022-09-14T05:46:13.140Z,147552.78
2022-09-14T05:48:40.616Z,147523.50
2022-09-14T05:51:13.979Z,147556.47
2022-09-14T05:53:41.344Z,147561.34
2022-09-14T05:56:13.678Z,147557.69
2022-09-14T05:58:42.067Z,147522.28
2022-09-14T06:01:25.585Z,147588.22
2022-09-14T06:03:57.649Z,147554.06
2022-09-14T06:06:24.708Z,147505.19
2022-09-14T06:08:54.025Z,147543.03
2022-09-14T06:11:26.865Z,147545.50
2022-09-14T06:13:55.292Z,147489.28
2022-09-14T06:16:24.439Z,147551.59
2022-09-14T06:18:51.900Z,147475.84
2022-09-14T06:21:20.919Z,147549.16
2022-09-14T06:23:48.928Z,147549.16
2022-09-14T06:26:16.641Z,147530.84
2022-09-14T06:28:44.045Z,147563.81
2022-09-14T06:31:13.066Z,147546.69
2022-09-14T06:33:44.946Z,147573.59
2022-09-14T06:36:14.706Z,147563.81
2022-09-14T06:38:42.624Z,147561.34
2022-09-14T06:41:12.584Z,147562.56
2022-09-14T06:43:41.474Z,147573.59
2022-09-14T06:46:30.364Z,147458.72
2022-09-14T06:49:00.429Z,147591.91
2022-09-14T06:51:31.516Z,147616.31
2022-09-14T06:54:00.217Z,147561.34
2022-09-14T06:56:37.212Z,147621.22
2022-09-14T06:59:05.859Z,147624.88
2022-09-14T07:01:33.207Z,147617.53
2022-09-14T07:04:01.465Z,147560.16
2022-09-14T07:06:31.404Z,147617.53
2022-09-14T07:08:58.877Z,147621.22
2022-09-14T07:11:29.338Z,147627.34
2022-09-14T07:13:59.942Z,147630.97
2022-09-14T07:16:27.179Z,147596.78
2022-09-14T07:18:55.975Z,147634.66
2022-09-14T07:21:24.548Z,147642.00
2022-09-14T07:23:52.125Z,147665.22
2022-09-14T07:26:21.593Z,147665.22
2022-09-14T07:29:00.411Z,147667.63
2022-09-14T07:31:32.832Z,147678.66
2022-09-14T07:34:03.266Z,147672.53
2022-09-14T07:36:34.868Z,147676.19
2022-09-14T07:39:05.598Z,147676.19
2022-09-14T07:41:34.120Z,147673.78
2022-09-14T07:44:03.269Z,147676.19
2022-09-14T07:46:38.040Z,147689.63
2022-09-14T07:49:06.520Z,147705.53
2022-09-14T07:51:34.954Z,147719.03
2022-09-14T07:54:03.010Z,147715.31
2022-09-14T07:56:30.021Z,147703.06
2022-09-14T07:59:23.822Z,147736.13
2022-09-14T08:01:47.224Z,147731.22
2022-09-14T08:04:14.275Z,147766.69
2022-09-14T08:06:42.050Z,147761.78
2022-09-14T08:09:09.175Z,147789.91
2022-09-14T08:11:36.844Z,147744.66
2022-09-14T08:14:12.807Z,147792.38
2022-09-14T08:16:40.868Z,147798.47
2022-09-14T08:19:13.255Z,147754.44
2022-09-14T08:21:44.316Z,147797.25
2022-09-14T08:24:16.054Z,147788.69
2022-09-14T08:26:43.517Z,147765.47
2022-09-14T08:29:12.389Z,147787.47
2022-09-14T08:31:40.556Z,147793.56
2022-09-14T08:34:07.753Z,147829.03
2022-09-14T08:36:37.102Z,147855.88
2022-09-14T08:39:09.045Z,147829.03
2022-09-14T08:41:46.326Z,147810.69
2022-09-14T08:44:22.409Z,147814.31
2022-09-14T08:46:58.910Z,147832.66
2022-09-14T08:49:51.801Z,147813.13
2022-09-14T08:52:26.389Z,147803.34
2022-09-14T08:54:56.985Z,147813.13
2022-09-14T08:57:50.709Z,147833.91
2022-09-14T09:00:22.457Z,147816.78
2022-09-14T09:03:27.863Z,147816.78
2022-09-14T09:06:06.614Z,147846.13
2022-09-14T09:08:46.882Z,147858.34
2022-09-14T09:11:20.799Z,147820.47
2022-09-14T09:13:50.009Z,147826.56
2022-09-14T09:16:21.750Z,147811.91
2022-09-14T09:18:53.470Z,147815.59
2022-09-14T09:21:25.200Z,147837.53
2022-09-14T09:23:56.036Z,147837.53
2022-09-14T09:26:32.142Z,147857.16
2022-09-14T09:29:03.370Z,147853.47
2022-09-14T09:31:56.154Z,147857.16
2022-09-14T09:34:43.251Z,147821.69
2022-09-14T09:37:22.182Z,147862.03
2022-09-14T09:39:49.564Z,147847.38
2022-09-14T09:42:24.035Z,147874.22
2022-09-14T09:45:00.686Z,147866.91
2022-09-14T09:47:36.805Z,147874.22
2022-09-14T09:50:20.550Z,147764.22
2022-09-14T09:53:06.556Z,147776.44
2022-09-14T09:55:38.913Z,147879.16
2022-09-14T09:58:33.405Z,147946.41
2022-09-14T10:01:11.515Z,148006.34
2022-09-14T10:03:40.810Z,147936.63
2022-09-14T10:06:11.488Z,147946.41
2022-09-14T10:08:44.725Z,147928.03
2022-09-14T10:11:38.239Z,147928.03
2022-09-14T10:14:19.824Z,147939.09
2022-09-14T10:16:47.477Z,147910.91
2022-09-14T10:19:20.118Z,147925.59
2022-09-14T10:22:05.897Z,147953.78
2022-09-14T10:24:35.919Z,147956.19
2022-09-14T10:27:37.815Z,147935.38
2022-09-14T10:30:26.952Z,147921.94
2022-09-14T10:33:01.854Z,147926.81
2022-09-14T10:36:07.175Z,147864.44
2022-09-14T10:38:43.645Z,147934.16
2022-09-14T10:41:22.361Z,147936.63
2022-09-14T10:44:27.777Z,147942.75
2022-09-14T10:47:34.223Z,147959.88
2022-09-14T10:50:25.904Z,147941.53
2022-09-14T10:53:05.107Z,147952.56
2022-09-14T10:56:02.640Z,147957.44
2022-09-14T10:58:43.244Z,147999.03
2022-09-14T11:01:29.042Z,148019.78
2022-09-14T11:04:25.849Z,148101.75
2022-09-14T11:07:12.439Z,148121.31
2022-09-14T11:09:56.723Z,148096.84
2022-09-14T11:12:39.149Z,148084.59
2022-09-14T11:15:41.111Z,148057.69
2022-09-14T11:18:27.158Z,148040.59
2022-09-14T11:21:07.539Z,147981.88
2022-09-14T11:24:14.134Z,147942.75
2022-09-14T11:26:45.748Z,147950.09
2022-09-14T11:29:31.610Z,147940.31
2022-09-14T11:32:21.557Z,147945.22
2022-09-14T11:34:57.769Z,147975.78
2022-09-14T11:37:45.700Z,147932.91
2022-09-14T11:40:20.893Z,147935.38
2022-09-14T11:42:50.729Z,147913.38
2022-09-14T11:45:26.405Z,147928.03
2022-09-14T11:47:59.961Z,147907.28
2022-09-14T11:50:30.314Z,147881.56
2022-09-14T11:53:08.975Z,147862.03
2022-09-14T11:55:36.959Z,147858.34
2022-09-14T11:58:07.467Z,147833.91
2022-09-14T12:00:52.705Z,147841.22
2022-09-14T12:03:22.947Z,147842.47
2022-09-14T12:05:50.249Z,147830.25
2022-09-14T12:08:35.298Z,147835.13
2022-09-14T12:11:08.021Z,147807.03
2022-09-14T12:13:37.044Z,147832.66
2022-09-14T12:16:06.686Z,147815.59
2022-09-14T12:18:38.860Z,147871.81
2022-09-14T12:21:19.532Z,147923.16
2022-09-14T12:23:52.105Z,147947.63
2022-09-14T12:26:19.719Z,147977.00
2022-09-14T12:29:01.249Z,147988.00
2022-09-14T12:31:37.379Z,147999.03
2022-09-14T12:34:18.065Z,148072.41
2022-09-14T12:36:44.960Z,148121.31
2022-09-14T12:39:25.485Z,148180.06
2022-09-14T12:41:52.373Z,148176.41
2022-09-14T12:44:48.766Z,148128.66
2022-09-14T12:47:24.984Z,148084.59
2022-09-14T12:49:58.509Z,148126.19
2022-09-14T12:52:56.951Z,148126.19
2022-09-14T12:55:54.886Z,148175.19
2022-09-14T12:58:42.834Z,148058.94
2022-09-14T13:01:18.964Z,148128.66
2022-09-14T13:03:50.261Z,148087.06
2022-09-14T13:06:18.023Z,148023.47
2022-09-14T13:08:50.401Z,148057.69
2022-09-14T13:11:23.350Z,148035.72
2022-09-14T13:13:51.272Z,148023.47
2022-09-14T13:16:27.154Z,148005.13
2022-09-14T13:19:01.773Z,148034.44
2022-09-14T13:21:28.941Z,147997.75
2022-09-14T13:23:56.422Z,147990.47
2022-09-14T13:26:31.448Z,147965.97
2022-09-14T13:29:01.496Z,147923.16
2022-09-14T13:31:37.386Z,147915.84
2022-09-14T13:34:05.306Z,147897.50
2022-09-14T13:36:40.388Z,147874.22
2022-09-14T13:39:27.826Z,147827.78
2022-09-14T13:41:55.937Z,147842.47
2022-09-14T13:44:30.861Z,147798.47
2022-09-14T13:47:01.597Z,147849.78
2022-09-14T13:49:29.198Z,147843.69
2022-09-14T13:52:18.706Z,147857.16
2022-09-14T13:54:46.759Z,147862.03
2022-09-14T13:57:21.889Z,147837.53
2022-09-14T14:00:14.072Z,147837.53
2022-09-14T14:02:47.767Z,147815.59
2022-09-14T14:05:28.039Z,147847.38
2022-09-14T14:07:57.697Z,147810.69
2022-09-14T14:10:30.886Z,147815.59
2022-09-14T14:12:58.827Z,147815.59
2022-09-14T14:15:25.835Z,147794.78
2022-09-14T14:17:53.506Z,147803.34
2022-09-14T14:20:26.380Z,147791.09
2022-09-14T14:23:02.001Z,147798.47
2022-09-14T14:25:42.049Z,147778.91
2022-09-14T14:28:29.971Z,147787.47
2022-09-14T14:30:58.512Z,147771.56
2022-09-14T14:33:26.120Z,147774.03
2022-09-14T14:35:56.219Z,147730.00
2022-09-14T14:38:24.971Z,147764.22
2022-09-14T14:40:55.026Z,147749.56
2022-09-14T14:43:25.403Z,147747.13
2022-09-14T14:45:58.511Z,147739.78
2022-09-14T14:48:26.614Z,147761.78
2022-09-14T14:50:55.466Z,147710.44
2022-09-14T14:53:24.280Z,147775.25
2022-09-14T14:55:52.637Z,147761.78
2022-09-14T14:58:21.086Z,147727.53
2022-09-14T15:00:49.099Z,147744.66
2022-09-14T15:03:18.813Z,147744.66
2022-09-14T15:05:47.532Z,147759.31
2022-09-14T15:08:17.074Z,147754.44
2022-09-14T15:10:44.185Z,147738.56
2022-09-14T15:13:12.410Z,147728.81
2022-09-14T15:15:41.486Z,147698.19
2022-09-14T15:18:08.739Z,147700.66
2022-09-14T15:20:35.726Z,147640.78
2022-09-14T15:23:02.797Z,147698.19
2022-09-14T15:25:29.829Z,147682.34
2022-09-14T15:27:56.876Z,147685.97
2022-09-14T15:30:23.945Z,147660.31
2022-09-14T15:32:50.931Z,147661.53
2022-09-14T15:35:18.005Z,147648.09
2022-09-14T15:37:46.783Z,147632.22
2022-09-14T15:40:13.920Z,147579.69
2022-09-14T15:42:41.037Z,147622.47
2022-09-14T15:45:09.190Z,147622.47
2022-09-14T15:47:36.733Z,147610.22
2022-09-14T15:50:05.733Z,147602.88
2022-09-14T15:52:36.095Z,147617.53
2022-09-14T15:55:04.791Z,147623.66
2022-09-14T15:57:31.864Z,147610.22
2022-09-14T15:59:58.865Z,147612.66
2022-09-14T16:02:25.985Z,147634.66
2022-09-14T16:04:53.041Z,147622.47
2022-09-14T16:07:20.018Z,147604.13
2022-09-14T16:09:47.025Z,147507.59
2022-09-14T16:12:14.129Z,147551.59
2022-09-14T16:14:41.303Z,147539.34
2022-09-14T16:17:09.053Z,147546.69
2022-09-14T16:19:36.088Z,147554.06
2022-09-14T16:22:03.619Z,147550.38
2022-09-14T16:24:31.790Z,147556.47
2022-09-14T16:26:59.665Z,147590.69
2022-09-14T16:29:27.344Z,147571.13
2022-09-14T16:31:54.745Z,147550.38
2022-09-14T16:34:27.291Z,147585.81
2022-09-14T16:36:55.428Z,147552.78
2022-09-14T16:39:25.059Z,147552.78
2022-09-14T16:41:55.519Z,147563.81
2022-09-14T16:44:25.001Z,147573.59
2022-09-14T16:46:53.334Z,147522.28
2022-09-14T16:49:26.330Z,147539.34
2022-09-14T16:51:55.300Z,147580.88
2022-09-14T16:54:24.255Z,147546.69
2022-09-14T16:56:51.457Z,147543.03
2022-09-14T16:59:20.449Z,147523.50
2022-09-14T17:01:52.079Z,147527.16
2022-09-14T17:04:21.965Z,147544.25
2022-09-14T17:06:50.432Z,147502.72
2022-09-14T17:09:20.930Z,147534.47
2022-09-14T17:11:48.583Z,147527.16
2022-09-14T17:14:18.874Z,147536.94
2022-09-14T17:16:46.307Z,147534.47
2022-09-14T17:19:13.762Z,147530.84
2022-09-14T17:21:42.697Z,147523.50
2022-09-14T17:24:10.939Z,147517.41
2022-09-14T17:26:38.649Z,147500.28
2022-09-14T17:29:06.926Z,147512.53
2022-09-14T17:31:39.462Z,147524.72
2022-09-14T17:34:07.442Z,147514.94
2022-09-14T17:36:34.668Z,147500.28
2022-09-14T17:39:06.801Z,147459.94
2022-09-14T17:41:38.468Z,147479.47
2022-09-14T17:44:07.234Z,147478.25
2022-09-14T17:46:35.979Z,147451.38
2022-09-14T17:49:05.840Z,147425.78
2022-09-14T17:51:36.204Z,147417.22
2022-09-14T17:54:03.580Z,147412.34
2022-09-14T17:56:30.922Z,147356.13
2022-09-14T17:59:04.910Z,147409.88
2022-09-14T18:01:33.336Z,147413.53
2022-09-14T18:04:06.552Z,147407.47
2022-09-14T18:06:38.246Z,147390.34
2022-09-14T18:09:11.594Z,147415.97
2022-09-14T18:11:38.909Z,147415.97
2022-09-14T18:14:06.516Z,147405.00
2022-09-14T18:16:33.931Z,147412.34
2022-09-14T18:19:01.097Z,147428.19
2022-09-14T18:21:28.201Z,147429.41
2022-09-14T18:23:55.701Z,147406.19
2022-09-14T18:26:25.065Z,147348.84
2022-09-14T18:28:55.824Z,147414.75
2022-09-14T18:31:23.540Z,147414.75
2022-09-14T18:33:58.872Z,147403.78
2022-09-14T18:36:28.961Z,147396.44
2022-09-14T18:38:57.944Z,147387.88
2022-09-14T18:41:25.248Z,147392.75
2022-09-14T18:43:53.123Z,147387.88
2022-09-14T18:46:25.718Z,147383.00
2022-09-14T18:48:56.812Z,147396.44
2022-09-14T18:51:24.146Z,147385.47
2022-09-14T18:53:58.782Z,147385.47
2022-09-14T18:56:25.838Z,147405.00
2022-09-14T18:58:52.849Z,147401.31
2022-09-14T19:01:20.169Z,147405.00
2022-09-14T19:03:48.236Z,147426.97
2022-09-14T19:06:17.820Z,147400.09
2022-09-14T19:08:45.275Z,147390.34
2022-09-14T19:11:21.441Z,147444.09
2022-09-14T19:13:50.698Z,147422.09
2022-09-14T19:16:19.172Z,147403.78
2022-09-14T19:18:48.500Z,147409.88
2022-09-14T19:21:22.800Z,147419.63
2022-09-14T19:24:06.803Z,147419.63
2022-09-14T19:26:43.921Z,147426.97
2022-09-14T19:29:13.779Z,147408.66
2022-09-14T19:31:41.116Z,147412.34
2022-09-14T19:34:08.164Z,147418.44
2022-09-14T19:36:35.132Z,147409.88
2022-09-14T19:39:03.650Z,147439.22
2022-09-14T19:41:32.962Z,147455.06
2022-09-14T19:44:00.820Z,147437.94
2022-09-14T19:46:31.521Z,147383.00
2022-09-14T19:48:58.595Z,147397.66
2022-09-14T19:51:27.494Z,147381.78
2022-09-14T19:53:56.932Z,147383.00
2022-09-14T19:56:27.640Z,147364.69
2022-09-14T19:58:57.469Z,147368.34
2022-09-14T20:01:26.495Z,147373.25
2022-09-14T20:03:54.003Z,147380.59
2022-09-14T20:06:25.861Z,147383.00
2022-09-14T20:08:55.532Z,147375.72
2022-09-14T20:11:24.483Z,147383.00
2022-09-14T20:13:56.414Z,147363.47
2022-09-14T20:16:29.860Z,147336.63
2022-09-14T20:18:58.658Z,147348.84
2022-09-14T20:21:27.772Z,147373.25
2022-09-14T20:24:17.452Z,147370.81
2022-09-14T20:26:49.288Z,147359.81
2022-09-14T20:29:17.994Z,147341.50
2022-09-14T20:31:45.199Z,147346.38
2022-09-14T20:34:13.197Z,147350.03
2022-09-14T20:36:40.443Z,147334.19
2022-09-14T20:39:08.280Z,147356.13
2022-09-14T20:41:36.147Z,147346.38
2022-09-14T20:44:04.046Z,147343.97
2022-09-14T20:46:35.141Z,147358.59
2022-09-14T20:49:04.226Z,147321.97
2022-09-14T20:51:31.541Z,147340.28
2022-09-14T20:53:58.548Z,147319.50
2022-09-14T20:56:28.019Z,147248.75
2022-09-14T20:58:58.913Z,147323.19
2022-09-14T21:01:28.689Z,147324.41
2022-09-14T21:04:00.700Z,147248.75
2022-09-14T21:06:27.684Z,147319.50
2022-09-14T21:08:55.389Z,147313.44
2022-09-14T21:11:25.397Z,147284.16
2022-09-14T21:13:53.973Z,147300.00
2022-09-14T21:16:24.489Z,147295.13
2022-09-14T21:18:57.895Z,147295.13
2022-09-14T21:21:25.872Z,147287.78
2022-09-14T21:23:54.949Z,147300.00
2022-09-14T21:26:22.616Z,147300.00
2022-09-14T21:28:55.800Z,147262.16
2022-09-14T21:31:23.907Z,147264.59
2022-09-14T21:33:54.524Z,147249.94
2022-09-14T21:36:24.564Z,147258.50
2022-09-14T21:38:53.792Z,147219.41
2022-09-14T21:41:22.983Z,147258.50
2022-09-14T21:43:50.907Z,147281.69
2022-09-14T21:46:18.343Z,147246.28
2022-09-14T21:48:46.298Z,147314.63
2022-09-14T21:51:25.265Z,147245.03
2022-09-14T21:54:00.111Z,147216.97
2022-09-14T21:56:34.501Z,147236.47
2022-09-14T21:59:05.550Z,147216.97
2022-09-14T22:01:32.760Z,147213.28
2022-09-14T22:04:00.319Z,147226.72
2022-09-14T22:06:31.144Z,147204.72
2022-09-14T22:08:59.863Z,147214.50
2022-09-14T22:11:32.890Z,147226.72
2022-09-14T22:14:10.028Z,147215.75
2022-09-14T22:16:37.871Z,147221.84
2022-09-14T22:19:16.349Z,147229.19
2022-09-14T22:21:44.152Z,147232.81
2022-09-14T22:24:14.727Z,147232.81
2022-09-14T22:26:43.282Z,147232.81
2022-09-14T22:29:11.185Z,147240.16
2022-09-14T22:31:40.526Z,147224.28
2022-09-14T22:34:08.432Z,147227.91
2022-09-14T22:36:36.100Z,147241.34
2022-09-14T22:39:04.812Z,147184.00
2022-09-14T22:41:31.772Z,147247.53
2022-09-14T22:43:58.836Z,147253.63
2022-09-14T22:46:25.950Z,147229.19
2022-09-14T22:48:53.485Z,147214.50
2022-09-14T22:51:23.275Z,147185.22
2022-09-14T22:53:50.856Z,147192.56
2022-09-14T22:56:19.266Z,147126.66
2022-09-14T22:58:47.376Z,147153.50
2022-09-14T23:01:23.538Z,147168.13
2022-09-14T23:03:55.736Z,147132.78
2022-09-14T23:06:26.688Z,147126.66
2022-09-14T23:08:53.702Z,147131.53
2022-09-14T23:11:20.735Z,147116.88
2022-09-14T23:13:47.893Z,147090.03
2022-09-14T23:16:21.473Z,147070.53
2022-09-14T23:18:54.258Z,147060.78
2022-09-14T23:21:22.225Z,147065.66
2022-09-14T23:23:53.847Z,147090.03
2022-09-14T23:26:21.435Z,147080.28
2022-09-14T23:28:59.972Z,147079.09
2022-09-14T23:31:28.969Z,147073.00
2022-09-14T23:34:02.826Z,147043.69
2022-09-14T23:36:30.189Z,147024.19
2022-09-14T23:38:57.731Z,146993.69
2022-09-14T23:41:26.204Z,147011.97
2022-09-14T23:43:53.848Z,147007.09
2022-09-14T23:46:21.355Z,147007.09
2022-09-14T23:48:48.532Z,146994.94
2022-09-14T23:51:15.796Z,147031.47
2022-09-14T23:53:43.245Z,146992.47
2022-09-14T23:56:11.183Z,147014.44
2022-09-14T23:58:38.924Z,147021.72
